createdAt,value
2023-01-22T00:00:56.307Z,1.10
2023-01-22T00:03:39.298Z,1.10
2023-01-22T00:06:08.636Z,1.14
2023-01-22T00:11:26.788Z,1.15
2023-01-22T00:13:53.204Z,1.11
2023-01-22T00:16:19.680Z,1.12
2023-01-22T00:18:48.563Z,1.13
2023-01-22T00:21:15.102Z,1.16
2023-01-22T00:23:43.003Z,1.13
2023-01-22T00:26:09.368Z,1.17
2023-01-22T00:28:36.179Z,1.19
2023-01-22T00:31:02.818Z,1.19
2023-01-22T00:33:29.323Z,1.22
2023-01-22T00:35:55.793Z,1.19
2023-01-22T00:38:22.266Z,1.20
2023-01-22T00:40:48.694Z,1.17
2023-01-22T00:43:15.072Z,1.13
2023-01-22T00:45:41.520Z,1.11
2023-01-22T00:48:08.017Z,1.10
2023-01-22T00:50:34.455Z,1.01
2023-01-22T00:53:06.722Z,1.01
2023-01-22T00:55:33.203Z,1.00
2023-01-22T00:57:59.652Z,1.01
2023-01-22T01:00:27.378Z,1.00
2023-01-22T01:02:53.922Z,0.97
2023-01-22T01:05:20.291Z,0.97
2023-01-22T01:07:49.755Z,0.95
2023-01-22T01:10:16.612Z,0.94
2023-01-22T01:12:43.197Z,0.91
2023-01-22T01:15:09.586Z,0.85
2023-01-22T01:17:36.018Z,0.82
2023-01-22T01:20:02.461Z,0.81
2023-01-22T01:22:31.630Z,0.84
2023-01-22T01:24:58.155Z,0.80
2023-01-22T01:27:24.711Z,0.79
2023-01-22T01:29:51.134Z,0.72
2023-01-22T01:32:17.509Z,0.69
2023-01-22T01:34:43.882Z,0.74
2023-01-22T01:37:10.316Z,0.74
2023-01-22T01:39:36.826Z,0.73
2023-01-22T01:42:03.250Z,0.72
2023-01-22T01:44:29.687Z,0.73
2023-01-22T01:46:56.143Z,0.73
2023-01-22T01:49:22.565Z,0.73
2023-01-22T01:51:48.974Z,0.74
2023-01-22T01:54:15.419Z,0.76
2023-01-22T01:56:41.844Z,0.77
2023-01-22T01:59:08.178Z,0.73
2023-01-22T02:01:34.558Z,0.71
2023-01-22T02:04:01.053Z,0.69
2023-01-22T02:06:27.457Z,0.63
2023-01-22T02:08:53.839Z,0.67
2023-01-22T02:11:20.282Z,0.68
2023-01-22T02:13:46.700Z,0.67
2023-01-22T02:16:14.078Z,0.69
2023-01-22T02:18:40.489Z,0.68
2023-01-22T02:21:06.919Z,0.69
2023-01-22T02:23:35.456Z,0.68
2023-01-22T02:26:01.897Z,0.66
2023-01-22T02:28:28.350Z,0.64
2023-01-22T02:30:54.848Z,0.63
2023-01-22T02:33:21.346Z,0.62
2023-01-22T02:35:47.784Z,0.61
2023-01-22T02:38:15.503Z,0.58
2023-01-22T02:40:41.958Z,0.57
2023-01-22T02:43:08.363Z,0.59
2023-01-22T02:45:34.924Z,0.60
2023-01-22T02:48:01.347Z,0.62
2023-01-22T02:50:27.878Z,0.63
2023-01-22T02:52:54.270Z,0.63
2023-01-22T02:55:20.654Z,0.63
2023-01-22T02:57:47.096Z,0.66
2023-01-22T03:00:13.623Z,0.68
2023-01-22T03:02:40.045Z,0.62
2023-01-22T03:05:06.481Z,0.60
2023-01-22T03:07:32.911Z,0.61
2023-01-22T03:09:59.336Z,0.67
2023-01-22T03:12:25.720Z,0.74
2023-01-22T03:14:52.140Z,0.75
2023-01-22T03:17:18.881Z,0.73
2023-01-22T03:19:45.320Z,0.72
2023-01-22T03:22:11.833Z,0.75
2023-01-22T03:24:38.241Z,0.71
2023-01-22T03:27:04.646Z,0.67
2023-01-22T03:29:31.026Z,0.63
2023-01-22T03:31:57.469Z,0.65
2023-01-22T03:34:23.887Z,0.69
2023-01-22T03:36:50.237Z,0.72
2023-01-22T03:39:16.649Z,0.77
2023-01-22T03:41:42.992Z,0.77
2023-01-22T03:44:09.400Z,0.78
2023-01-22T03:46:35.858Z,0.86
2023-01-22T03:49:02.276Z,0.88
2023-01-22T03:51:28.760Z,0.90
2023-01-22T03:53:55.209Z,0.92
2023-01-22T03:56:21.601Z,0.88
2023-01-22T03:58:48.005Z,0.84
2023-01-22T04:01:14.534Z,0.84
2023-01-22T04:03:41.088Z,0.90
2023-01-22T04:06:07.571Z,0.91
2023-01-22T04:08:34.054Z,0.96
2023-01-22T04:11:00.479Z,0.96
2023-01-22T04:13:26.927Z,0.84
2023-01-22T04:15:53.496Z,0.91
2023-01-22T04:18:20.016Z,0.88
2023-01-22T04:20:46.498Z,0.94
2023-01-22T04:23:12.984Z,0.91
2023-01-22T04:25:39.472Z,0.89
2023-01-22T04:28:05.905Z,0.90
2023-01-22T04:30:32.555Z,0.86
2023-01-22T04:32:59.004Z,0.76
2023-01-22T04:35:25.458Z,0.70
2023-01-22T04:37:54.225Z,0.74
2023-01-22T04:40:20.882Z,0.76
2023-01-22T04:42:47.582Z,0.74
2023-01-22T04:45:13.994Z,0.73
2023-01-22T04:47:40.414Z,0.67
2023-01-22T04:50:06.850Z,0.74
2023-01-22T04:52:33.296Z,0.77
2023-01-22T04:54:59.767Z,0.71
2023-01-22T04:57:28.687Z,0.70
2023-01-22T04:59:55.110Z,0.69
2023-01-22T05:02:21.536Z,0.64
2023-01-22T05:04:48.020Z,0.59
2023-01-22T05:07:14.404Z,0.59
2023-01-22T05:09:40.842Z,0.56
2023-01-22T05:12:07.209Z,0.65
2023-01-22T05:14:35.672Z,0.68
2023-01-22T05:17:02.106Z,0.69
2023-01-22T05:19:33.327Z,0.72
2023-01-22T05:21:59.787Z,0.72
2023-01-22T05:24:26.331Z,0.74
2023-01-22T05:26:52.699Z,0.77
2023-01-22T05:29:19.060Z,0.78
2023-01-22T05:31:46.917Z,0.70
2023-01-22T05:34:13.473Z,0.74
2023-01-22T05:36:39.918Z,0.78
2023-01-22T05:39:06.305Z,0.81
2023-01-22T05:41:32.756Z,0.79
2023-01-22T05:43:59.305Z,0.79
2023-01-22T05:46:26.947Z,0.81
2023-01-22T05:48:53.402Z,0.80
2023-01-22T05:51:22.968Z,0.80
2023-01-22T05:53:49.438Z,0.80
2023-01-22T05:56:15.968Z,0.81
2023-01-22T05:58:42.621Z,0.83
2023-01-22T06:01:09.522Z,0.75
2023-01-22T06:03:35.895Z,0.67
2023-01-22T06:06:02.295Z,0.69
2023-01-22T06:08:28.775Z,0.69
2023-01-22T06:10:55.119Z,0.74
2023-01-22T06:13:21.511Z,0.75
2023-01-22T06:15:48.192Z,0.75
2023-01-22T06:18:14.639Z,0.76
2023-01-22T06:20:41.018Z,0.78
2023-01-22T06:23:07.457Z,0.78
2023-01-22T06:25:33.928Z,0.76
2023-01-22T06:28:00.389Z,0.68
2023-01-22T06:30:26.920Z,0.72
2023-01-22T06:32:53.329Z,0.67
2023-01-22T06:35:19.957Z,0.67
2023-01-22T06:37:46.400Z,0.59
2023-01-22T06:40:12.738Z,0.42
2023-01-22T06:42:42.305Z,0.37
2023-01-22T06:45:08.686Z,0.43
2023-01-22T06:47:35.207Z,0.49
2023-01-22T06:50:01.635Z,0.56
2023-01-22T06:52:28.044Z,0.61
2023-01-22T06:54:54.478Z,0.65
2023-01-22T06:57:20.854Z,0.68
2023-01-22T06:59:47.246Z,0.71
2023-01-22T07:02:13.676Z,0.67
2023-01-22T07:04:40.084Z,0.71
2023-01-22T07:07:06.544Z,0.77
2023-01-22T07:09:32.957Z,0.78
2023-01-22T07:11:59.377Z,0.80
2023-01-22T07:14:36.500Z,0.69
2023-01-22T07:17:03.726Z,0.82
2023-01-22T07:19:30.122Z,0.76
2023-01-22T07:21:56.545Z,0.79
2023-01-22T07:24:24.196Z,0.78
2023-01-22T07:26:50.609Z,0.83
2023-01-22T07:29:17.045Z,0.86
2023-01-22T07:31:43.452Z,0.86
2023-01-22T07:34:09.885Z,0.90
2023-01-22T07:36:36.319Z,0.92
2023-01-22T07:39:02.782Z,0.92
2023-01-22T07:41:29.115Z,0.89
2023-01-22T07:43:55.480Z,0.87
2023-01-22T07:46:21.927Z,0.82
2023-01-22T07:48:48.356Z,0.70
2023-01-22T07:51:14.836Z,0.67
2023-01-22T07:53:41.279Z,0.62
2023-01-22T07:56:07.862Z,0.55
2023-01-22T07:58:41.613Z,0.49
2023-01-22T08:01:08.134Z,0.50
2023-01-22T08:03:34.596Z,0.53
2023-01-22T08:06:04.272Z,0.57
2023-01-22T08:08:30.720Z,0.62
2023-01-22T08:10:59.549Z,0.70
2023-01-22T08:13:26.097Z,0.77
2023-01-22T08:15:52.478Z,0.83
2023-01-22T08:18:20.394Z,0.89
2023-01-22T08:20:47.757Z,0.97
2023-01-22T08:23:17.141Z,1.00
2023-01-22T08:25:44.351Z,1.04
2023-01-22T08:28:10.833Z,1.04
2023-01-22T08:30:45.381Z,1.06
2023-01-22T08:33:12.763Z,1.08
2023-01-22T08:35:43.451Z,1.12
2023-01-22T08:38:09.870Z,1.13
2023-01-22T08:40:37.971Z,1.18
2023-01-22T08:43:04.571Z,1.22
2023-01-22T08:45:31.138Z,1.18
2023-01-22T08:47:57.562Z,1.19
2023-01-22T08:50:25.101Z,1.15
2023-01-22T08:52:51.597Z,1.14
2023-01-22T08:55:31.978Z,1.12
2023-01-22T08:57:58.455Z,1.09
2023-01-22T09:00:24.930Z,1.06
2023-01-22T09:02:51.333Z,0.93
2023-01-22T09:07:49.705Z,0.87
2023-01-22T09:10:25.412Z,0.88
2023-01-22T09:12:55.192Z,0.87
2023-01-22T09:15:21.814Z,0.78
2023-01-22T09:17:48.190Z,0.78
2023-01-22T09:22:58.659Z,0.77
2023-01-22T09:25:27.532Z,0.89
2023-01-22T09:27:53.900Z,0.92
2023-01-22T09:30:20.831Z,1.01
2023-01-22T09:32:47.433Z,1.01
2023-01-22T09:35:16.264Z,0.76
2023-01-22T09:37:49.312Z,0.88
2023-01-22T09:40:15.862Z,0.88
2023-01-22T09:42:42.375Z,0.84
2023-01-22T09:45:08.775Z,0.98
2023-01-22T09:47:35.181Z,1.04
2023-01-22T09:50:01.573Z,1.09
2023-01-22T09:52:27.923Z,1.16
2023-01-22T09:54:57.397Z,1.09
2023-01-22T09:57:31.771Z,1.13
2023-01-22T09:59:58.779Z,1.22
2023-01-22T10:02:25.268Z,1.26
2023-01-22T10:04:55.237Z,1.29
2023-01-22T10:07:21.617Z,1.32
2023-01-22T10:09:47.996Z,1.30
2023-01-22T10:12:14.496Z,1.23
2023-01-22T10:14:42.195Z,1.28
2023-01-22T10:17:16.879Z,1.34
2023-01-22T10:19:50.890Z,1.40
2023-01-22T10:22:17.260Z,1.40
2023-01-22T10:27:30.618Z,1.53
2023-01-22T10:29:57.043Z,1.60
2023-01-22T10:32:23.482Z,1.64
2023-01-22T10:34:49.911Z,1.65
2023-01-22T10:37:19.377Z,1.68
2023-01-22T10:39:45.812Z,1.72
2023-01-22T10:42:12.178Z,1.71
2023-01-22T10:44:38.623Z,1.66
2023-01-22T10:47:05.075Z,1.63
2023-01-22T10:49:32.159Z,1.59
2023-01-22T10:52:01.336Z,1.51
2023-01-22T10:54:29.153Z,1.51
2023-01-22T10:56:55.562Z,1.45
2023-01-22T10:59:22.245Z,1.52
2023-01-22T11:01:48.787Z,1.51
2023-01-22T11:04:15.241Z,1.55
2023-01-22T11:06:43.040Z,1.57
2023-01-22T11:09:09.542Z,1.56
2023-01-22T11:11:35.968Z,1.57
2023-01-22T11:14:02.364Z,1.55
2023-01-22T11:16:28.804Z,1.56
2023-01-22T11:18:55.161Z,1.59
2023-01-22T11:21:21.681Z,1.66
2023-01-22T11:23:48.121Z,1.73
2023-01-22T11:26:14.609Z,1.77
2023-01-22T11:28:41.067Z,1.79
2023-01-22T11:31:07.699Z,1.81
2023-01-22T11:33:34.216Z,1.80
2023-01-22T11:36:02.683Z,1.85
2023-01-22T11:38:29.056Z,1.93
2023-01-22T11:40:55.529Z,1.99
2023-01-22T11:43:21.992Z,1.98
2023-01-22T11:45:48.505Z,2.01
2023-01-22T11:48:15.007Z,2.04
2023-01-22T11:50:41.452Z,2.08
2023-01-22T11:53:07.914Z,2.14
2023-01-22T11:55:34.366Z,2.23
2023-01-22T11:58:05.074Z,2.24
2023-01-22T12:00:31.521Z,2.26
2023-01-22T12:02:57.991Z,2.29
2023-01-22T12:05:24.536Z,2.28
2023-01-22T12:07:51.156Z,2.37
2023-01-22T12:10:19.348Z,2.47
2023-01-22T12:15:36.048Z,2.42
2023-01-22T12:18:02.598Z,2.42
2023-01-22T12:20:29.018Z,2.45
2023-01-22T12:22:56.760Z,2.43
2023-01-22T12:25:23.210Z,2.42
2023-01-22T12:27:49.607Z,2.38
2023-01-22T12:30:25.195Z,2.29
2023-01-22T12:32:55.982Z,2.42
2023-01-22T12:35:25.202Z,2.52
2023-01-22T12:37:51.718Z,2.59
2023-01-22T12:40:19.431Z,2.65
2023-01-22T12:42:46.008Z,2.70
2023-01-22T12:45:13.702Z,2.73
2023-01-22T12:47:42.370Z,2.77
2023-01-22T12:50:08.918Z,2.79
2023-01-22T12:52:35.428Z,2.77
2023-01-22T12:55:02.020Z,2.69
2023-01-22T12:57:28.521Z,2.73
2023-01-22T13:00:01.677Z,2.81
2023-01-22T13:02:30.206Z,2.91
2023-01-22T13:05:02.408Z,2.98
2023-01-22T13:07:28.815Z,3.03
2023-01-22T13:09:56.247Z,3.09
2023-01-22T13:12:25.471Z,3.13
2023-01-22T13:14:51.879Z,3.16
2023-01-22T13:17:21.288Z,3.17
2023-01-22T13:22:34.030Z,3.13
2023-01-22T13:25:00.710Z,3.11
2023-01-22T13:27:29.226Z,3.17
2023-01-22T13:29:58.562Z,3.19
2023-01-22T13:32:25.095Z,3.21
2023-01-22T13:34:51.559Z,3.24
2023-01-22T13:37:19.302Z,3.24
2023-01-22T13:39:46.822Z,3.20
2023-01-22T13:42:13.319Z,3.18
2023-01-22T13:44:39.770Z,3.24
2023-01-22T13:47:06.160Z,3.11
2023-01-22T13:49:32.613Z,3.17
2023-01-22T13:52:01.163Z,3.23
2023-01-22T13:54:27.588Z,3.24
2023-01-22T13:56:54.077Z,3.25
2023-01-22T13:59:20.801Z,3.29
2023-01-22T14:01:47.281Z,3.29
2023-01-22T14:04:13.829Z,3.20
2023-01-22T14:06:40.201Z,3.26
2023-01-22T14:09:08.736Z,3.22
2023-01-22T14:11:35.095Z,3.18
2023-01-22T14:14:01.522Z,3.13
2023-01-22T14:16:28.220Z,3.09
2023-01-22T14:18:54.888Z,3.09
2023-01-22T14:21:21.299Z,3.04
2023-01-22T14:23:47.724Z,3.06
2023-01-22T14:26:14.137Z,3.07
2023-01-22T14:28:40.600Z,2.99
2023-01-22T14:31:07.129Z,2.92
2023-01-22T14:33:33.604Z,2.90
2023-01-22T14:36:04.696Z,2.91
2023-01-22T14:38:31.162Z,3.02
2023-01-22T14:40:57.591Z,3.10
2023-01-22T14:43:25.330Z,3.15
2023-01-22T14:45:52.025Z,3.18
2023-01-22T14:48:18.481Z,3.20
2023-01-22T14:50:44.922Z,3.24
2023-01-22T14:53:11.482Z,3.28
2023-01-22T14:55:38.001Z,3.29
2023-01-22T14:58:04.488Z,3.30
2023-01-22T15:00:30.928Z,3.34
2023-01-22T15:02:57.393Z,3.34
2023-01-22T15:05:23.813Z,3.35
2023-01-22T15:07:50.254Z,3.36
2023-01-22T15:10:16.863Z,3.36
2023-01-22T15:12:43.448Z,3.38
2023-01-22T15:15:10.782Z,3.35
2023-01-22T15:17:37.377Z,3.34
2023-01-22T15:20:03.936Z,3.36
2023-01-22T15:22:30.344Z,3.37
2023-01-22T15:24:56.821Z,3.35
2023-01-22T15:27:23.374Z,3.31
2023-01-22T15:29:51.139Z,3.31
2023-01-22T15:32:17.533Z,3.29
2023-01-22T15:34:44.169Z,3.29
2023-01-22T15:37:10.644Z,3.30
2023-01-22T15:39:37.082Z,3.29
2023-01-22T15:42:03.539Z,3.31
2023-01-22T15:44:29.908Z,3.32
2023-01-22T15:46:56.353Z,3.30
2023-01-22T15:49:22.830Z,3.29
2023-01-22T15:51:49.248Z,3.30
2023-01-22T15:54:15.688Z,3.27
2023-01-22T15:56:42.126Z,3.24
2023-01-22T15:59:08.579Z,3.19
2023-01-22T16:01:36.437Z,3.17
2023-01-22T16:04:02.947Z,3.13
2023-01-22T16:06:29.392Z,3.10
2023-01-22T16:08:55.818Z,3.07
2023-01-22T16:11:22.297Z,3.11
2023-01-22T16:13:49.700Z,3.11
2023-01-22T16:16:16.208Z,3.08
2023-01-22T16:18:42.657Z,3.08
2023-01-22T16:21:09.165Z,3.08
2023-01-22T16:23:35.548Z,3.08
2023-01-22T16:26:04.433Z,3.09
2023-01-22T16:28:30.947Z,3.07
2023-01-22T16:31:01.856Z,3.08
2023-01-22T16:33:28.475Z,3.06
2023-01-22T16:35:55.047Z,3.08
2023-01-22T16:38:21.575Z,3.10
2023-01-22T16:40:48.030Z,3.08
2023-01-22T16:43:14.445Z,3.07
2023-01-22T16:45:40.913Z,3.05
2023-01-22T16:48:07.323Z,3.07
2023-01-22T16:50:36.632Z,3.08
2023-01-22T16:53:03.199Z,3.07
2023-01-22T16:55:31.804Z,3.04
2023-01-22T16:57:58.290Z,3.06
2023-01-22T17:00:25.948Z,3.05
2023-01-22T17:02:52.464Z,3.06
2023-01-22T17:05:19.054Z,3.00
2023-01-22T17:07:52.823Z,2.99
2023-01-22T17:10:19.377Z,3.00
2023-01-22T17:12:47.488Z,3.02
2023-01-22T17:15:13.982Z,3.00
2023-01-22T17:17:40.421Z,3.00
2023-01-22T17:20:06.836Z,2.99
2023-01-22T17:22:36.365Z,2.99
2023-01-22T17:25:02.790Z,3.00
2023-01-22T17:27:29.272Z,2.99
2023-01-22T17:29:57.078Z,3.00
2023-01-22T17:32:23.515Z,3.01
2023-01-22T17:34:49.946Z,3.01
2023-01-22T17:37:18.494Z,3.02
2023-01-22T17:39:44.875Z,2.95
2023-01-22T17:42:11.277Z,2.98
2023-01-22T17:44:39.044Z,2.96
2023-01-22T17:47:06.096Z,2.90
2023-01-22T17:49:32.479Z,2.84
2023-01-22T17:51:58.921Z,2.84
2023-01-22T17:54:27.699Z,2.84
2023-01-22T17:56:54.083Z,2.84
2023-01-22T17:59:21.817Z,2.85
2023-01-22T18:01:52.628Z,2.88
2023-01-22T18:04:19.171Z,2.89
2023-01-22T18:06:45.593Z,2.84
2023-01-22T18:09:12.010Z,2.84
2023-01-22T18:11:38.413Z,2.82
2023-01-22T18:14:04.785Z,2.85
2023-01-22T18:16:31.160Z,2.88
2023-01-22T18:18:57.541Z,2.89
2023-01-22T18:21:24.104Z,2.89
2023-01-22T18:23:50.523Z,2.89
2023-01-22T18:26:16.912Z,2.89
2023-01-22T18:28:45.374Z,2.89
2023-01-22T18:31:11.881Z,2.89
2023-01-22T18:33:38.474Z,2.89
2023-01-22T18:36:04.905Z,2.85
2023-01-22T18:38:31.371Z,2.88
2023-01-22T18:40:57.881Z,2.89
2023-01-22T18:43:24.331Z,2.87
2023-01-22T18:45:50.740Z,2.87
2023-01-22T18:48:17.159Z,2.89
2023-01-22T18:50:43.623Z,2.89
2023-01-22T18:53:10.190Z,2.89
2023-01-22T18:55:36.778Z,2.91
2023-01-22T18:58:03.235Z,2.89
2023-01-22T19:00:29.687Z,2.87
2023-01-22T19:02:56.335Z,2.86
2023-01-22T19:05:22.741Z,2.84
2023-01-22T19:07:49.161Z,2.83
2023-01-22T19:10:15.575Z,2.79
2023-01-22T19:12:44.997Z,2.76
2023-01-22T19:15:11.414Z,2.70
2023-01-22T19:17:37.779Z,2.66
2023-01-22T19:20:04.174Z,2.64
2023-01-22T19:22:30.609Z,2.63
2023-01-22T19:24:57.004Z,2.59
2023-01-22T19:27:24.927Z,2.58
2023-01-22T19:29:51.305Z,2.56
2023-01-22T19:32:17.739Z,2.57
2023-01-22T19:34:44.142Z,2.53
2023-01-22T19:37:10.524Z,2.52
2023-01-22T19:39:36.892Z,2.49
2023-01-22T19:42:03.330Z,2.45
2023-01-22T19:44:29.928Z,2.44
2023-01-22T19:49:36.648Z,2.40
2023-01-22T19:52:03.004Z,2.41
2023-01-22T19:54:29.358Z,2.37
2023-01-22T19:56:55.787Z,2.36
2023-01-22T19:59:22.195Z,2.31
2023-01-22T20:01:48.747Z,2.28
2023-01-22T20:04:15.186Z,2.26
2023-01-22T20:06:41.574Z,2.25
2023-01-22T20:09:07.968Z,2.25
2023-01-22T20:11:34.649Z,2.25
2023-01-22T20:14:01.053Z,2.25
2023-01-22T20:16:27.442Z,2.25
2023-01-22T20:18:53.881Z,2.27
2023-01-22T20:21:20.248Z,2.28
2023-01-22T20:23:46.658Z,2.27
2023-01-22T20:26:13.059Z,2.29
2023-01-22T20:28:39.403Z,2.29
2023-01-22T20:31:08.652Z,2.25
2023-01-22T20:33:35.205Z,2.23
2023-01-22T20:36:01.600Z,2.24
2023-01-22T20:38:33.094Z,2.25
2023-01-22T20:41:02.171Z,2.27
2023-01-22T20:43:36.015Z,2.31
2023-01-22T20:46:02.441Z,2.32
2023-01-22T20:48:29.187Z,2.32
2023-01-22T20:50:55.618Z,2.31
2023-01-22T20:53:24.025Z,2.31
2023-01-22T20:55:51.175Z,2.32
2023-01-22T20:58:17.591Z,2.35
2023-01-22T21:00:44.016Z,2.35
2023-01-22T21:03:11.512Z,2.36
2023-01-22T21:05:38.302Z,2.38
2023-01-22T21:08:04.744Z,2.37
2023-01-22T21:10:33.992Z,2.35
2023-01-22T21:13:00.939Z,2.32
2023-01-22T21:15:29.358Z,2.28
2023-01-22T21:17:58.078Z,2.27
2023-01-22T21:20:24.547Z,2.27
2023-01-22T21:22:50.968Z,2.26
2023-01-22T21:25:17.373Z,2.26
2023-01-22T21:27:43.831Z,2.25
2023-01-22T21:30:10.209Z,2.24
2023-01-22T21:32:36.603Z,2.22
2023-01-22T21:35:05.978Z,2.23
2023-01-22T21:37:32.409Z,2.22
2023-01-22T21:39:58.863Z,2.19
2023-01-22T21:42:25.246Z,2.19
2023-01-22T21:44:51.657Z,2.17
2023-01-22T21:47:20.213Z,2.19
2023-01-22T21:49:46.676Z,2.18
2023-01-22T21:52:15.952Z,2.18
2023-01-22T21:54:44.220Z,1.99
2023-01-22T21:57:10.642Z,2.04
2023-01-22T21:59:37.120Z,2.04
2023-01-22T22:02:10.509Z,1.95
2023-01-22T22:04:37.032Z,2.02
2023-01-22T22:07:03.442Z,1.92
2023-01-22T22:09:29.847Z,1.96
2023-01-22T22:11:57.513Z,2.01
2023-01-22T22:14:26.308Z,2.07
2023-01-22T22:16:52.869Z,1.95
2023-01-22T22:19:19.409Z,2.03
2023-01-22T22:21:45.858Z,2.10
2023-01-22T22:24:12.281Z,2.11
2023-01-22T22:26:38.760Z,2.07
2023-01-22T22:29:05.184Z,2.07
2023-01-22T22:31:31.581Z,2.09
2023-01-22T22:33:58.320Z,2.03
2023-01-22T22:36:24.739Z,2.05
2023-01-22T22:38:51.264Z,2.02
2023-01-22T22:41:17.816Z,2.00
2023-01-22T22:43:44.203Z,1.96
2023-01-22T22:46:10.737Z,1.94
2023-01-22T22:48:37.178Z,1.94
2023-01-22T22:51:03.683Z,1.92
2023-01-22T22:53:30.252Z,1.89
2023-01-22T22:55:59.044Z,1.89
2023-01-22T22:58:25.473Z,1.83
2023-01-22T23:00:51.896Z,1.69
2023-01-22T23:03:21.097Z,1.51
2023-01-22T23:05:47.513Z,1.49
2023-01-22T23:08:13.887Z,1.57
2023-01-22T23:10:40.486Z,1.62
2023-01-22T23:13:06.863Z,1.68
2023-01-22T23:15:34.542Z,1.73
2023-01-22T23:18:00.930Z,1.72
2023-01-22T23:20:27.493Z,1.68
2023-01-22T23:22:53.977Z,1.76
2023-01-22T23:25:23.350Z,1.81
2023-01-22T23:27:49.755Z,1.86
2023-01-22T23:30:16.168Z,1.90
2023-01-22T23:32:42.544Z,1.95
2023-01-22T23:35:08.958Z,1.97
2023-01-22T23:37:35.390Z,1.98
2023-01-22T23:40:01.775Z,1.98
2023-01-22T23:42:28.199Z,1.94
2023-01-22T23:44:54.599Z,1.99
2023-01-22T23:47:20.990Z,2.02
2023-01-22T23:49:47.416Z,1.95
2023-01-22T23:52:13.794Z,2.00
2023-01-22T23:54:40.219Z,1.95
2023-01-22T23:57:06.647Z,1.98
2023-01-22T23:59:33.034Z,2.01
